createdAt,value
2017-12-01T00:00:55.495Z,60.80
2017-12-01T00:01:55.491Z,59.90
2017-12-01T00:02:55.504Z,65.30
2017-12-01T00:03:55.501Z,60.30
2017-12-01T00:04:55.510Z,60.80
2017-12-01T00:05:55.516Z,66.50
2017-12-01T00:06:55.524Z,65.00
2017-12-01T00:07:55.542Z,59.80
2017-12-01T00:08:55.542Z,60.30
2017-12-01T00:09:55.547Z,59.30
2017-12-01T00:10:55.554Z,60.00
2017-12-01T00:11:55.566Z,58.60
2017-12-01T00:12:55.578Z,65.60
2017-12-01T00:13:55.569Z,59.10
2017-12-01T00:14:55.576Z,63.00
2017-12-01T00:15:55.577Z,64.80
2017-12-01T00:16:55.592Z,62.90
2017-12-01T00:17:55.587Z,66.00
2017-12-01T00:18:55.602Z,64.10
2017-12-01T00:19:55.608Z,70.60
2017-12-01T00:20:55.612Z,61.90
2017-12-01T00:21:55.622Z,65.80
2017-12-01T00:22:55.627Z,60.60
2017-12-01T00:23:55.627Z,62.60
2017-12-01T00:24:55.636Z,59.20
2017-12-01T00:25:55.637Z,59.10
2017-12-01T00:26:55.652Z,59.80
2017-12-01T00:27:55.659Z,64.10
2017-12-01T00:28:55.660Z,61.50
2017-12-01T00:29:55.668Z,68.60
2017-12-01T00:30:55.673Z,63.80
2017-12-01T00:31:55.679Z,65.90
2017-12-01T00:32:55.683Z,65.50
2017-12-01T00:33:55.687Z,62.80
2017-12-01T00:34:55.698Z,64.60
2017-12-01T00:35:55.708Z,66.80
2017-12-01T00:36:55.708Z,65.30
2017-12-01T00:37:55.721Z,62.70
2017-12-01T00:38:55.731Z,65.60
2017-12-01T00:39:55.732Z,60.10
2017-12-01T00:40:55.733Z,60.30
2017-12-01T00:41:55.808Z,63.10
2017-12-01T00:42:55.744Z,59.70
2017-12-01T00:43:55.752Z,64.70
2017-12-01T00:44:55.759Z,64.40
2017-12-01T00:45:55.767Z,63.60
2017-12-01T00:46:55.778Z,65.40
2017-12-01T00:47:55.772Z,61.40
2017-12-01T00:48:55.782Z,67.10
2017-12-01T00:49:55.794Z,62.00
2017-12-01T00:50:55.797Z,65.20
2017-12-01T00:51:55.795Z,66.20
2017-12-01T00:52:55.805Z,65.70
2017-12-01T00:53:55.817Z,64.70
2017-12-01T00:54:55.843Z,65.20
2017-12-01T00:55:55.839Z,65.20
2017-12-01T00:56:55.823Z,62.00
2017-12-01T00:57:55.851Z,61.30
2017-12-01T00:58:55.843Z,66.00
2017-12-01T00:59:55.853Z,61.20
2017-12-01T01:00:55.855Z,60.40
2017-12-01T01:01:55.864Z,66.70
2017-12-01T01:02:55.875Z,61.90
2017-12-01T01:03:55.880Z,60.30
2017-12-01T01:04:55.944Z,63.60
2017-12-01T01:05:55.883Z,61.90
2017-12-01T01:06:55.890Z,62.40
2017-12-01T01:07:55.895Z,70.70
2017-12-01T01:08:55.901Z,58.20
2017-12-01T01:09:55.912Z,60.30
2017-12-01T01:10:55.919Z,60.80
2017-12-01T01:11:55.925Z,59.30
2017-12-01T01:12:55.925Z,60.70
2017-12-01T01:13:55.931Z,60.60
2017-12-01T01:14:55.939Z,63.80
2017-12-01T01:15:55.946Z,68.00
2017-12-01T01:16:55.965Z,63.90
2017-12-01T01:17:55.963Z,60.10
2017-12-01T01:18:55.962Z,61.50
2017-12-01T01:19:55.972Z,58.40
2017-12-01T01:20:55.979Z,61.00
2017-12-01T01:21:55.985Z,59.50
2017-12-01T01:22:55.993Z,63.40
2017-12-01T01:23:55.990Z,58.00
2017-12-01T01:24:55.999Z,65.20
2017-12-01T01:25:56.013Z,67.80
2017-12-01T01:26:56.014Z,64.70
2017-12-01T01:27:56.018Z,63.20
2017-12-01T01:28:56.030Z,63.00
2017-12-01T01:29:56.028Z,63.80
2017-12-01T01:30:56.031Z,60.70
2017-12-01T01:31:56.039Z,64.80
2017-12-01T01:32:56.056Z,63.20
2017-12-01T01:33:56.051Z,59.60
2017-12-01T01:34:56.059Z,67.30
2017-12-01T01:35:56.067Z,59.00
2017-12-01T01:36:56.074Z,58.70
2017-12-01T01:37:56.080Z,69.00
2017-12-01T01:38:56.098Z,65.00
2017-12-01T01:39:56.088Z,59.90
2017-12-01T01:40:56.101Z,66.70
2017-12-01T01:41:56.099Z,61.00
2017-12-01T01:42:56.106Z,62.60
2017-12-01T01:43:56.135Z,62.20
2017-12-01T01:44:56.125Z,62.70
2017-12-01T01:45:56.133Z,57.90
2017-12-01T01:46:56.126Z,63.00
2017-12-01T01:47:56.142Z,61.40
2017-12-01T01:48:56.140Z,65.00
2017-12-01T01:49:56.153Z,61.90
2017-12-01T01:50:56.152Z,65.20
2017-12-01T01:51:56.164Z,65.40
2017-12-01T01:52:56.163Z,62.00
2017-12-01T01:53:56.170Z,62.10
2017-12-01T01:54:56.184Z,61.80
2017-12-01T01:55:56.261Z,57.70
2017-12-01T01:56:56.204Z,61.10
2017-12-01T01:57:56.198Z,62.20
2017-12-01T01:58:56.201Z,57.20
2017-12-01T01:59:56.209Z,59.50
2017-12-01T02:00:56.215Z,57.40
2017-12-01T02:01:56.221Z,59.20
2017-12-01T02:02:56.229Z,55.50
2017-12-01T02:03:56.237Z,57.20
2017-12-01T02:04:56.250Z,58.30
2017-12-01T02:05:56.248Z,57.00
2017-12-01T02:06:56.250Z,58.60
2017-12-01T02:07:56.261Z,58.80
2017-12-01T02:08:56.263Z,58.70
2017-12-01T02:09:56.275Z,61.40
2017-12-01T02:10:56.293Z,64.90
2017-12-01T02:11:56.275Z,60.90
2017-12-01T02:12:56.287Z,57.40
2017-12-01T02:13:56.293Z,56.00
2017-12-01T02:14:56.303Z,58.20
2017-12-01T02:15:56.310Z,57.50
2017-12-01T02:16:56.314Z,58.90
2017-12-01T02:17:56.325Z,56.90
2017-12-01T02:18:56.324Z,55.30
2017-12-01T02:19:56.327Z,57.40
2017-12-01T02:20:56.336Z,55.50
2017-12-01T02:21:56.346Z,54.20
2017-12-01T02:22:56.357Z,55.40
2017-12-01T02:23:56.405Z,54.20
2017-12-01T02:24:56.359Z,58.60
2017-12-01T02:25:56.365Z,53.80
2017-12-01T02:26:56.370Z,56.10
2017-12-01T02:27:56.374Z,50.80
2017-12-01T02:28:56.387Z,55.40
2017-12-01T02:29:56.396Z,57.60
2017-12-01T02:30:56.394Z,56.70
2017-12-01T02:31:56.404Z,56.20
2017-12-01T02:32:56.410Z,58.60
2017-12-01T02:33:56.408Z,57.60
2017-12-01T02:34:56.421Z,52.10
2017-12-01T02:35:56.422Z,57.50
2017-12-01T02:36:56.444Z,54.70
2017-12-01T02:37:56.437Z,55.80
2017-12-01T02:38:56.441Z,54.80
2017-12-01T02:39:56.448Z,54.50
2017-12-01T02:40:56.455Z,56.70
2017-12-01T02:41:56.463Z,57.00
2017-12-01T02:42:56.477Z,53.90
2017-12-01T02:43:56.474Z,52.80
2017-12-01T02:44:56.480Z,61.70
2017-12-01T02:45:56.490Z,59.70
2017-12-01T02:46:56.549Z,56.60
2017-12-01T02:47:56.499Z,60.30
2017-12-01T02:48:56.505Z,61.80
2017-12-01T02:49:56.512Z,58.50
2017-12-01T02:50:56.513Z,59.30
2017-12-01T02:51:56.525Z,58.00
2017-12-01T02:52:56.529Z,58.90
2017-12-01T02:53:56.536Z,59.00
2017-12-01T02:54:56.542Z,55.40
2017-12-01T02:55:56.545Z,60.30
2017-12-01T02:56:56.546Z,65.30
2017-12-01T02:57:56.558Z,60.20
2017-12-01T02:58:56.563Z,55.60
2017-12-01T02:59:56.568Z,57.90
2017-12-01T03:00:56.577Z,62.10
2017-12-01T03:01:56.584Z,62.90
2017-12-01T03:02:56.593Z,60.40
2017-12-01T03:03:56.593Z,59.50
2017-12-01T03:04:56.599Z,65.00
2017-12-01T03:05:56.616Z,59.00
2017-12-01T03:06:56.614Z,59.40
2017-12-01T03:07:56.617Z,64.50
2017-12-01T03:08:56.622Z,67.10
2017-12-01T03:09:56.644Z,61.20
2017-12-01T03:10:56.644Z,61.00
2017-12-01T03:11:56.640Z,61.20
2017-12-01T03:12:56.651Z,56.70
2017-12-01T03:13:56.664Z,59.10
2017-12-01T03:14:56.667Z,60.30
2017-12-01T03:15:56.666Z,62.00
2017-12-01T03:16:56.669Z,60.60
2017-12-01T03:17:56.678Z,60.40
2017-12-01T03:18:56.680Z,57.70
2017-12-01T03:19:56.696Z,62.60
2017-12-01T03:20:56.699Z,60.40
2017-12-01T03:21:56.704Z,63.00
2017-12-01T03:22:56.709Z,64.50
2017-12-01T03:23:56.720Z,62.50
2017-12-01T03:24:56.712Z,66.50
2017-12-01T03:25:56.725Z,59.90
2017-12-01T03:26:56.735Z,62.00
2017-12-01T03:27:56.739Z,65.50
2017-12-01T03:28:56.742Z,62.10
2017-12-01T03:29:56.752Z,62.10
2017-12-01T03:30:56.758Z,58.90
2017-12-01T03:31:56.762Z,66.50
2017-12-01T03:32:56.765Z,58.60
2017-12-01T03:33:56.771Z,58.10
2017-12-01T03:34:56.776Z,57.10
2017-12-01T03:35:56.787Z,60.60
2017-12-01T03:36:56.790Z,76.10
2017-12-01T03:37:56.802Z,72.30
2017-12-01T03:38:56.803Z,62.30
2017-12-01T03:39:56.808Z,62.30
2017-12-01T03:40:56.815Z,64.60
2017-12-01T03:41:56.818Z,63.10
2017-12-01T03:42:56.828Z,61.80
2017-12-01T03:43:56.843Z,56.30
2017-12-01T03:44:56.841Z,58.60
2017-12-01T03:45:56.845Z,60.50
2017-12-01T03:46:56.853Z,63.80
2017-12-01T03:47:56.854Z,61.50
2017-12-01T03:48:56.879Z,58.10
2017-12-01T03:49:56.872Z,64.20
2017-12-01T03:50:56.880Z,65.10
2017-12-01T03:51:56.882Z,62.60
2017-12-01T03:52:56.888Z,62.10
2017-12-01T03:53:56.901Z,58.80
2017-12-01T03:54:56.901Z,62.00
2017-12-01T03:55:56.913Z,62.50
2017-12-01T03:56:56.910Z,62.60
2017-12-01T03:57:56.923Z,62.80
2017-12-01T03:58:56.924Z,60.70
2017-12-01T03:59:56.933Z,65.20
2017-12-01T04:00:56.937Z,65.80
2017-12-01T04:01:56.944Z,65.80
2017-12-01T04:02:56.981Z,62.70
2017-12-01T04:03:56.958Z,63.90
2017-12-01T04:04:56.966Z,57.90
2017-12-01T04:05:56.972Z,60.00
2017-12-01T04:06:56.975Z,64.10
2017-12-01T04:07:56.987Z,66.00
2017-12-01T04:08:56.985Z,62.80
2017-12-01T04:09:56.987Z,72.20
2017-12-01T04:10:56.998Z,67.40
2017-12-01T04:11:56.998Z,65.80
2017-12-01T04:12:57.013Z,61.60
2017-12-01T04:13:57.017Z,62.30
2017-12-01T04:14:57.022Z,59.80
2017-12-01T04:15:57.836Z,68.70
2017-12-01T04:16:57.031Z,68.10
2017-12-01T04:17:57.034Z,64.40
2017-12-01T04:18:57.043Z,61.00
2017-12-01T04:19:57.046Z,68.90
2017-12-01T04:20:57.054Z,62.40
2017-12-01T04:21:57.060Z,61.00
2017-12-01T04:22:57.070Z,63.10
2017-12-01T04:23:57.071Z,62.80
2017-12-01T04:24:57.076Z,61.50
2017-12-01T04:25:57.089Z,63.80
2017-12-01T04:26:57.099Z,63.10
2017-12-01T04:27:57.096Z,66.20
2017-12-01T04:28:57.108Z,64.50
2017-12-01T04:29:57.105Z,62.70
2017-12-01T04:30:57.119Z,61.60
2017-12-01T04:31:57.132Z,63.50
2017-12-01T04:32:57.132Z,65.90
2017-12-01T04:33:57.139Z,66.90
2017-12-01T04:34:57.140Z,62.90
2017-12-01T04:35:57.141Z,66.60
2017-12-01T04:36:57.154Z,65.70
2017-12-01T04:37:57.157Z,63.90
2017-12-01T04:38:57.837Z,68.00
2017-12-01T04:39:57.169Z,60.80
2017-12-01T04:40:57.178Z,66.80
2017-12-01T04:41:57.183Z,67.00
2017-12-01T04:42:57.191Z,64.70
2017-12-01T04:43:57.211Z,68.70
2017-12-01T04:44:57.204Z,64.90
2017-12-01T04:45:57.210Z,68.50
2017-12-01T04:46:57.214Z,67.30
2017-12-01T04:47:57.217Z,68.70
2017-12-01T04:48:57.225Z,68.10
2017-12-01T04:49:57.230Z,70.80
2017-12-01T04:50:57.241Z,74.70
2017-12-01T04:51:57.248Z,71.90
2017-12-01T04:52:57.250Z,67.00
2017-12-01T04:53:57.254Z,67.00
2017-12-01T04:54:57.263Z,67.40
2017-12-01T04:55:57.269Z,65.70
2017-12-01T04:56:57.316Z,69.20
2017-12-01T04:57:57.280Z,72.30
2017-12-01T04:58:57.291Z,68.00
2017-12-01T04:59:57.297Z,70.40
2017-12-01T05:00:57.306Z,74.80
2017-12-01T05:01:57.309Z,72.30
2017-12-01T05:02:57.308Z,69.60
2017-12-01T05:03:57.315Z,68.70
2017-12-01T05:04:57.321Z,70.20
2017-12-01T05:05:57.323Z,69.20
2017-12-01T05:06:57.338Z,70.80
2017-12-01T05:07:57.342Z,68.50
2017-12-01T05:08:57.343Z,68.30
2017-12-01T05:09:57.347Z,71.30
2017-12-01T05:10:57.368Z,70.60
2017-12-01T05:11:57.368Z,71.30
2017-12-01T05:12:57.365Z,60.30
2017-12-01T05:13:57.375Z,72.40
2017-12-01T05:14:57.383Z,68.10
2017-12-01T05:15:57.397Z,67.70
2017-12-01T05:16:57.392Z,68.60
2017-12-01T05:17:57.403Z,63.20
2017-12-01T05:18:57.409Z,68.60
2017-12-01T05:19:57.458Z,68.90
2017-12-01T05:20:57.421Z,66.70
2017-12-01T05:21:57.430Z,67.70
2017-12-01T05:22:57.429Z,65.30
2017-12-01T05:23:57.436Z,70.20
2017-12-01T05:24:57.444Z,67.10
2017-12-01T05:25:57.444Z,61.90
2017-12-01T05:26:57.449Z,67.40
2017-12-01T05:27:57.459Z,68.10
2017-12-01T05:28:57.468Z,64.40
2017-12-01T05:29:57.580Z,65.60
2017-12-01T05:30:57.479Z,66.30
2017-12-01T05:31:57.484Z,67.40
2017-12-01T05:32:57.492Z,66.60
2017-12-01T05:33:57.500Z,70.90
2017-12-01T05:34:57.504Z,63.10
2017-12-01T05:35:57.503Z,63.60
2017-12-01T05:36:57.519Z,63.40
2017-12-01T05:37:57.520Z,70.70
2017-12-01T05:38:57.552Z,67.10
2017-12-01T05:39:57.532Z,64.60
2017-12-01T05:40:57.538Z,66.60
2017-12-01T05:41:57.545Z,65.90
2017-12-01T05:42:57.553Z,65.30
2017-12-01T05:43:57.551Z,66.00
2017-12-01T05:44:57.564Z,63.70
2017-12-01T05:45:57.563Z,63.50
2017-12-01T05:46:57.576Z,68.80
2017-12-01T05:47:57.594Z,61.60
2017-12-01T05:48:57.583Z,62.10
2017-12-01T05:49:57.592Z,57.80
2017-12-01T05:50:57.599Z,62.30
2017-12-01T05:51:57.602Z,63.20
2017-12-01T05:52:57.622Z,67.30
2017-12-01T05:53:57.615Z,61.40
2017-12-01T05:54:57.620Z,62.60
2017-12-01T05:55:57.627Z,65.50
2017-12-01T05:56:57.633Z,61.20
2017-12-01T05:57:57.695Z,67.70
2017-12-01T05:58:57.648Z,58.30
2017-12-01T05:59:57.650Z,66.10
2017-12-01T06:00:57.668Z,59.90
2017-12-01T06:01:57.667Z,61.10
2017-12-01T06:02:57.673Z,59.50
2017-12-01T06:03:57.672Z,59.80
2017-12-01T06:04:57.687Z,59.20
2017-12-01T06:05:57.687Z,64.50
2017-12-01T06:06:57.695Z,64.60
2017-12-01T06:07:57.699Z,62.00
2017-12-01T06:08:57.708Z,64.00
2017-12-01T06:09:57.714Z,63.20
2017-12-01T06:10:57.719Z,57.70
2017-12-01T06:11:57.730Z,58.60
2017-12-01T06:12:57.732Z,60.00
2017-12-01T06:13:57.735Z,60.80
2017-12-01T06:14:57.746Z,62.70
2017-12-01T06:15:57.749Z,61.90
2017-12-01T06:16:57.756Z,64.40
2017-12-01T06:17:57.765Z,61.80
2017-12-01T06:18:57.762Z,60.00
2017-12-01T06:19:57.768Z,63.70
2017-12-01T06:20:57.786Z,61.70
2017-12-01T06:21:57.781Z,60.00
2017-12-01T06:22:57.790Z,60.50
2017-12-01T06:23:57.796Z,60.40
2017-12-01T06:24:57.800Z,62.70
2017-12-01T06:25:57.810Z,63.20
2017-12-01T06:26:57.818Z,62.60
2017-12-01T06:27:57.813Z,61.80
2017-12-01T06:28:57.818Z,60.90
2017-12-01T06:29:57.886Z,63.50
2017-12-01T06:30:57.862Z,62.30
2017-12-01T06:31:57.842Z,61.60
2017-12-01T06:32:57.857Z,67.20
2017-12-01T06:33:57.859Z,63.50
2017-12-01T06:34:57.869Z,63.10
2017-12-01T06:35:57.861Z,63.40
2017-12-01T06:36:57.888Z,69.60
2017-12-01T06:37:57.880Z,59.90
2017-12-01T06:38:57.908Z,65.00
2017-12-01T06:39:57.887Z,66.00
2017-12-01T06:40:57.898Z,65.20
2017-12-01T06:41:57.898Z,65.70
2017-12-01T06:42:57.909Z,64.90
2017-12-01T06:43:57.911Z,65.10
2017-12-01T06:44:57.928Z,71.10
2017-12-01T06:45:57.926Z,65.00
2017-12-01T06:46:57.928Z,68.50
2017-12-01T06:47:57.938Z,69.50
2017-12-01T06:48:57.942Z,68.30
2017-12-01T06:49:57.947Z,67.60
2017-12-01T06:50:57.953Z,69.80
2017-12-01T06:51:57.959Z,63.60
2017-12-01T06:52:57.965Z,68.10
2017-12-01T06:53:57.978Z,65.20
2017-12-01T06:54:57.985Z,66.20
2017-12-01T06:55:57.988Z,69.90
2017-12-01T06:56:57.992Z,71.60
2017-12-01T06:57:57.998Z,66.50
2017-12-01T06:58:58.003Z,68.90
2017-12-01T06:59:58.032Z,74.40
2017-12-01T07:00:58.012Z,66.50
2017-12-01T07:01:58.022Z,69.20
2017-12-01T07:02:58.020Z,65.50
2017-12-01T07:03:58.033Z,75.80
2017-12-01T07:04:58.036Z,69.60
2017-12-01T07:05:58.041Z,66.30
2017-12-01T07:06:58.103Z,69.20
2017-12-01T07:07:58.050Z,67.30
2017-12-01T07:08:58.065Z,76.20
2017-12-01T07:09:58.068Z,72.70
2017-12-01T07:10:58.081Z,68.70
2017-12-01T07:11:58.083Z,67.90
2017-12-01T07:12:58.082Z,72.00
2017-12-01T07:13:58.090Z,72.00
2017-12-01T07:14:58.100Z,73.50
2017-12-01T07:15:58.101Z,71.80
2017-12-01T07:16:58.105Z,75.50
2017-12-01T07:17:58.113Z,75.60
2017-12-01T07:18:58.131Z,70.80
2017-12-01T07:19:58.124Z,75.50
2017-12-01T07:20:58.129Z,73.80
2017-12-01T07:21:58.135Z,72.00
2017-12-01T07:22:58.140Z,75.20
2017-12-01T07:23:58.146Z,75.30
2017-12-01T07:24:58.152Z,75.00
2017-12-01T07:25:58.160Z,76.00
2017-12-01T07:26:58.166Z,77.40
2017-12-01T07:27:58.173Z,74.70
2017-12-01T07:28:58.178Z,71.90
2017-12-01T07:29:58.181Z,70.50
2017-12-01T07:30:58.189Z,71.40
2017-12-01T07:31:58.195Z,71.20
2017-12-01T07:32:58.197Z,75.90
2017-12-01T07:33:58.208Z,70.10
2017-12-01T07:34:58.211Z,71.00
2017-12-01T07:35:58.221Z,77.50
2017-12-01T07:36:58.223Z,73.50
2017-12-01T07:37:58.226Z,70.80
2017-12-01T07:38:58.234Z,75.90
2017-12-01T07:39:58.248Z,72.00
2017-12-01T07:40:58.243Z,71.50
2017-12-01T07:41:58.258Z,68.70
2017-12-01T07:42:58.259Z,67.20
2017-12-01T07:43:58.264Z,73.40
2017-12-01T07:44:58.270Z,68.50
2017-12-01T07:45:58.279Z,65.10
2017-12-01T07:46:58.278Z,70.70
2017-12-01T07:47:58.289Z,68.70
2017-12-01T07:48:58.289Z,66.30
2017-12-01T07:49:58.300Z,66.50
2017-12-01T07:50:58.303Z,69.20
2017-12-01T07:51:58.309Z,74.60
2017-12-01T07:52:58.310Z,70.70
2017-12-01T07:53:58.318Z,68.80
2017-12-01T07:54:58.327Z,64.80
2017-12-01T07:55:58.330Z,73.80
2017-12-01T07:56:58.340Z,70.40
2017-12-01T07:57:58.354Z,70.10
2017-12-01T07:58:58.349Z,69.20
2017-12-01T07:59:58.378Z,69.10
2017-12-01T08:00:58.359Z,74.40
2017-12-01T08:01:58.375Z,68.40
2017-12-01T08:02:58.368Z,69.00
2017-12-01T08:03:58.381Z,72.90
2017-12-01T08:04:58.390Z,67.00
2017-12-01T08:05:58.396Z,65.60
2017-12-01T08:06:58.398Z,66.40
2017-12-01T08:07:58.397Z,65.40
2017-12-01T08:08:58.405Z,63.40
2017-12-01T08:09:58.445Z,62.10
2017-12-01T08:10:58.414Z,65.80
2017-12-01T08:11:58.423Z,67.40
2017-12-01T08:12:58.441Z,62.70
2017-12-01T08:13:58.434Z,66.00
2017-12-01T08:14:58.441Z,67.20
2017-12-01T08:15:58.451Z,68.10
2017-12-01T08:16:58.455Z,67.20
2017-12-01T08:17:58.460Z,68.70
2017-12-01T08:18:58.470Z,65.90
2017-12-01T08:19:58.471Z,66.70
2017-12-01T08:20:58.518Z,67.20
2017-12-01T08:21:58.486Z,65.80
2017-12-01T08:22:58.497Z,67.10
2017-12-01T08:23:58.496Z,67.30
2017-12-01T08:24:58.504Z,64.90
2017-12-01T08:25:58.514Z,67.80
2017-12-01T08:26:58.514Z,67.10
2017-12-01T08:27:58.515Z,68.30
2017-12-01T08:28:58.528Z,67.10
2017-12-01T08:29:58.529Z,68.10
2017-12-01T08:30:58.665Z,65.30
2017-12-01T08:31:58.541Z,63.70
2017-12-01T08:32:58.554Z,66.10
2017-12-01T08:33:58.557Z,66.60
2017-12-01T08:34:58.566Z,65.00
2017-12-01T08:35:58.567Z,65.40
2017-12-01T08:36:58.570Z,84.60
2017-12-01T08:37:58.580Z,64.90
2017-12-01T08:38:58.586Z,66.70
2017-12-01T08:39:58.600Z,66.00
2017-12-01T08:40:58.602Z,67.10
2017-12-01T08:41:58.609Z,67.80
2017-12-01T08:42:58.610Z,68.30
2017-12-01T08:43:58.628Z,64.90
2017-12-01T08:44:58.627Z,68.20
2017-12-01T08:45:58.637Z,66.60
2017-12-01T08:46:58.632Z,66.00
2017-12-01T08:47:58.650Z,65.90
2017-12-01T08:48:58.645Z,69.10
2017-12-01T08:49:58.654Z,65.20
2017-12-01T08:50:58.655Z,63.40
2017-12-01T08:51:58.668Z,61.10
2017-12-01T08:52:58.675Z,62.10
2017-12-01T08:53:58.770Z,68.00
2017-12-01T08:54:58.677Z,72.40
2017-12-01T08:55:58.695Z,70.60
2017-12-01T08:56:58.690Z,64.70
2017-12-01T08:57:58.699Z,67.00
2017-12-01T08:58:58.714Z,68.50
2017-12-01T08:59:58.723Z,70.20
2017-12-01T09:00:58.722Z,66.10
2017-12-01T09:01:58.723Z,67.20
2017-12-01T09:02:58.733Z,67.60
2017-12-01T09:03:58.739Z,70.80
2017-12-01T09:04:58.747Z,65.70
2017-12-01T09:05:58.753Z,63.30
2017-12-01T09:06:58.753Z,66.10
2017-12-01T09:07:58.768Z,69.20
2017-12-01T09:08:58.775Z,68.50
2017-12-01T09:09:58.783Z,71.00
2017-12-01T09:10:58.791Z,69.00
2017-12-01T09:11:59.354Z,68.50
2017-12-01T09:12:58.792Z,63.20
2017-12-01T09:13:58.816Z,69.70
2017-12-01T09:14:58.818Z,70.00
2017-12-01T09:15:58.812Z,70.80
2017-12-01T09:16:58.824Z,67.20
2017-12-01T09:17:58.832Z,67.40
2017-12-01T09:18:58.836Z,63.90
2017-12-01T09:19:58.845Z,67.20
2017-12-01T09:20:58.852Z,68.30
2017-12-01T09:21:58.998Z,63.50
2017-12-01T09:22:58.861Z,65.70
2017-12-01T09:23:58.869Z,64.30
2017-12-01T09:24:58.872Z,65.40
2017-12-01T09:25:58.889Z,67.20
2017-12-01T09:26:58.890Z,60.70
2017-12-01T09:27:58.895Z,62.40
2017-12-01T09:28:58.896Z,62.60
2017-12-01T09:29:58.924Z,62.30
2017-12-01T09:30:58.916Z,62.20
2017-12-01T09:31:58.924Z,63.80
2017-12-01T09:32:58.932Z,64.50
2017-12-01T09:33:58.938Z,65.00
2017-12-01T09:34:58.944Z,61.70
2017-12-01T09:35:58.953Z,60.50
2017-12-01T09:36:58.962Z,59.10
2017-12-01T09:37:58.974Z,56.40
2017-12-01T09:38:58.981Z,54.10
2017-12-01T09:39:58.977Z,57.90
2017-12-01T09:40:58.981Z,57.00
2017-12-01T09:41:58.992Z,54.60
2017-12-01T09:42:59.008Z,57.50
2017-12-01T09:43:59.010Z,55.40
2017-12-01T09:44:59.037Z,60.50
2017-12-01T09:45:59.022Z,58.60
2017-12-01T09:46:59.029Z,55.80
2017-12-01T09:47:59.036Z,55.40
2017-12-01T09:48:59.038Z,56.70
2017-12-01T09:49:59.075Z,53.40
2017-12-01T09:50:59.062Z,57.80
2017-12-01T09:51:59.074Z,49.80
2017-12-01T09:52:59.083Z,49.70
2017-12-01T09:53:59.094Z,50.40
2017-12-01T09:54:59.088Z,50.20
2017-12-01T09:55:59.120Z,46.30
2017-12-01T09:56:59.135Z,47.60
2017-12-01T09:57:59.118Z,45.20
2017-12-01T09:58:59.133Z,47.30
2017-12-01T10:00:59.149Z,46.20
2017-12-01T10:01:59.150Z,48.40
2017-12-01T10:02:59.162Z,44.00
2017-12-01T10:03:59.170Z,37.00
2017-12-01T10:04:59.186Z,44.50
2017-12-01T10:05:59.186Z,37.50
2017-12-01T10:06:59.193Z,38.00
2017-12-01T10:07:59.203Z,41.20
2017-12-01T10:08:59.250Z,35.50
2017-12-01T10:09:59.218Z,38.40
2017-12-01T10:10:59.239Z,36.80
2017-12-01T10:11:59.229Z,38.80
2017-12-01T10:12:59.281Z,45.60
2017-12-01T10:13:59.247Z,45.90
2017-12-01T10:14:59.253Z,51.40
2017-12-01T10:15:59.260Z,47.30
2017-12-01T10:16:59.318Z,47.80
2017-12-01T10:17:59.277Z,48.50
2017-12-01T10:18:59.288Z,47.70
2017-12-01T10:19:59.296Z,53.70
2017-12-01T10:20:59.308Z,50.50
2017-12-01T10:21:59.308Z,48.00
2017-12-01T10:22:59.413Z,46.00
2017-12-01T10:23:59.335Z,50.20
2017-12-01T10:24:59.334Z,44.80
2017-12-01T10:25:59.368Z,49.30
2017-12-01T10:26:59.356Z,49.50
2017-12-01T10:27:59.361Z,48.00
2017-12-01T10:28:59.372Z,47.60
2017-12-01T10:29:59.383Z,47.90
2017-12-01T10:30:59.397Z,46.20
2017-12-01T10:31:59.410Z,34.80
2017-12-01T10:32:59.409Z,37.30
2017-12-01T10:33:59.421Z,44.90
2017-12-01T10:34:59.437Z,40.80
2017-12-01T10:35:59.433Z,41.30
2017-12-01T10:36:59.457Z,47.00
2017-12-01T10:37:59.461Z,42.10
2017-12-01T10:38:59.458Z,43.90
2017-12-01T10:39:59.480Z,42.50
2017-12-01T10:40:59.482Z,41.80
2017-12-01T10:41:59.489Z,44.60
2017-12-01T10:42:59.497Z,41.00
2017-12-01T10:43:59.513Z,43.60
2017-12-01T10:44:59.522Z,42.10
2017-12-01T10:45:59.528Z,40.50
2017-12-01T10:46:59.537Z,45.40
2017-12-01T10:47:59.545Z,43.70
2017-12-01T10:48:59.548Z,41.20
2017-12-01T10:49:59.568Z,41.80
2017-12-01T10:50:59.568Z,39.00
2017-12-01T10:51:59.576Z,36.00
2017-12-01T10:52:59.591Z,35.30
2017-12-01T10:53:59.594Z,40.80
2017-12-01T10:54:59.612Z,44.10
2017-12-01T10:55:59.623Z,42.90
2017-12-01T10:56:59.630Z,44.00
2017-12-01T10:57:59.637Z,42.30
2017-12-01T10:58:59.644Z,40.90
2017-12-01T10:59:59.657Z,41.80
2017-12-01T11:00:59.735Z,44.00
2017-12-01T11:01:59.669Z,40.50
2017-12-01T11:02:59.683Z,44.20
2017-12-01T11:03:59.695Z,43.80
2017-12-01T11:04:59.698Z,44.10
2017-12-01T11:05:59.712Z,39.40
2017-12-01T11:06:59.717Z,41.40
2017-12-01T11:07:59.726Z,44.50
2017-12-01T11:08:59.729Z,40.80
2017-12-01T11:09:59.739Z,41.00
2017-12-01T11:11:00.369Z,49.80
2017-12-01T11:11:59.768Z,41.90
2017-12-01T11:12:59.773Z,43.20
2017-12-01T11:13:59.781Z,40.60
2017-12-01T11:14:59.794Z,39.60
2017-12-01T11:15:59.800Z,43.20
2017-12-01T11:16:59.807Z,40.40
2017-12-01T11:17:59.817Z,41.20
2017-12-01T11:18:59.830Z,39.00
2017-12-01T11:19:59.835Z,37.80
2017-12-01T11:20:59.841Z,38.00
2017-12-01T11:21:59.859Z,36.80
2017-12-01T11:22:59.862Z,45.30
2017-12-01T11:23:59.926Z,33.00
2017-12-01T11:24:59.893Z,33.70
2017-12-01T11:25:59.900Z,27.50
2017-12-01T11:26:59.896Z,27.80
2017-12-01T11:27:59.916Z,24.90
2017-12-01T11:29:59.926Z,27.90
2017-12-01T11:31:59.947Z,22.30
2017-12-01T11:32:59.955Z,23.80
2017-12-01T11:33:59.988Z,35.10
2017-12-01T11:34:59.989Z,25.30
2017-12-01T11:36:00.025Z,29.20
2017-12-01T11:37:00.003Z,29.40
2017-12-01T11:38:00.009Z,29.50
2017-12-01T11:39:00.025Z,32.00
2017-12-01T11:40:00.038Z,27.80
2017-12-01T11:42:00.051Z,35.40
2017-12-01T11:43:00.056Z,30.80
2017-12-01T11:44:00.066Z,23.40
2017-12-01T11:45:00.079Z,25.20
2017-12-01T11:46:00.100Z,19.40
2017-12-01T11:47:00.095Z,21.30
2017-12-01T11:48:00.107Z,24.40
2017-12-01T11:49:00.118Z,22.80
2017-12-01T11:50:00.132Z,21.40
2017-12-01T11:51:00.148Z,29.30
2017-12-01T11:52:00.148Z,29.00
2017-12-01T11:53:00.157Z,26.00
2017-12-01T11:54:00.167Z,29.20
2017-12-01T11:55:00.177Z,30.30
2017-12-01T11:56:00.195Z,29.30
2017-12-01T11:57:00.208Z,24.80
2017-12-01T11:58:00.209Z,26.60
2017-12-01T11:59:00.314Z,25.50
2017-12-01T12:00:00.221Z,26.00
2017-12-01T12:01:00.235Z,25.70
2017-12-01T12:02:00.244Z,22.70
2017-12-01T12:03:00.252Z,23.40
2017-12-01T12:04:00.264Z,23.20
2017-12-01T12:05:00.274Z,26.10
2017-12-01T12:06:00.282Z,24.70
2017-12-01T12:07:00.295Z,25.30
2017-12-01T12:08:00.301Z,20.80
2017-12-01T12:09:00.304Z,23.90
2017-12-01T12:10:00.330Z,26.10
2017-12-01T12:11:00.334Z,21.20
2017-12-01T12:12:21.372Z,22.10
2017-12-01T12:14:00.371Z,23.10
2017-12-01T12:15:00.379Z,23.80
2017-12-01T12:16:00.375Z,27.70
2017-12-01T12:17:00.393Z,26.80
2017-12-01T12:18:00.399Z,25.80
2017-12-01T12:19:00.398Z,24.50
2017-12-01T12:20:00.415Z,18.40
2017-12-01T12:21:00.423Z,23.60
2017-12-01T12:22:00.432Z,21.10
2017-12-01T12:23:00.443Z,24.40
2017-12-01T12:24:00.449Z,19.90
2017-12-01T12:25:00.460Z,22.80
2017-12-01T12:26:00.479Z,24.70
2017-12-01T12:27:00.494Z,22.90
2017-12-01T12:28:00.490Z,22.80
2017-12-01T12:29:00.511Z,22.10
2017-12-01T12:30:00.514Z,23.20
2017-12-01T12:31:00.537Z,27.10
2017-12-01T12:32:00.541Z,30.80
2017-12-01T12:33:00.547Z,21.00
2017-12-01T12:34:00.574Z,17.60
2017-12-01T12:35:00.573Z,20.90
2017-12-01T12:36:00.576Z,23.30
2017-12-01T12:37:00.651Z,29.80
2017-12-01T12:38:00.594Z,26.80
2017-12-01T12:39:00.615Z,25.20
2017-12-01T12:40:00.638Z,25.40
2017-12-01T12:41:00.625Z,28.50
2017-12-01T12:42:00.634Z,26.50
2017-12-01T12:43:00.642Z,28.00
2017-12-01T12:44:00.653Z,26.70
2017-12-01T12:45:00.664Z,29.10
2017-12-01T12:46:00.671Z,28.30
2017-12-01T12:47:01.387Z,37.10
2017-12-01T12:48:00.697Z,33.00
2017-12-01T12:49:00.699Z,37.10
2017-12-01T12:50:00.708Z,35.70
2017-12-01T12:51:00.723Z,42.00
2017-12-01T12:52:00.728Z,43.30
2017-12-01T12:53:00.762Z,48.00
2017-12-01T12:54:00.744Z,35.60
2017-12-01T12:55:00.751Z,47.10
2017-12-01T12:56:00.760Z,41.30
2017-12-01T12:57:00.767Z,48.60
2017-12-01T12:58:00.777Z,41.90